FZRJ weather

Pepa Airport
Pepa, Katanga Province, Congo (Kinshasa)

Public forecast

Using degrees Celsius for public forecast. Weather courtesy of forecast.io.

Closest aviation weather report (METAR) to Pepa Airport

Closest report is Sumbawanga Airport, 108.6 nm (201.1 km) E. Retrieved 2020/05/29 06:00 UTC (40 minutes ago):

HTSU 290600Z 09009KT 9999 FEW017 18/13 Q1017

Closest aviation forecast (TAF) to Pepa Airport

Forecast is more than 12 hours old.

Closest forecast is Songwe Airport, 218.7 nm (404.9 km) ESE. Retrieved 2020-04-24 00:00 UTC (1 month ago):

TAF HTGW 232300Z 2400/2424 12010KT 9999 SCT020 FEW021CB